Wayana — PE5639 — position and weather

sailwx.info

Track history (hours):
 
Tides and Currents Weather Stations Pressure Air Temp Water Temp Dewpoint Dewpoint Depression Visibility Wind Speed Wind Dir Waves Ship Positions

Wayana

Last reported at 2017-Aug-24 04:24 UTC. Time now 2017-Aug-24 04:56 UTC.
Position N 53°17' E 005°05'.

Length 14 m.

Type: Sailing vessel. MMSI: 244020670.

Date/timePositionNaut miles runAvg speedWind from/ knotsBaromVisibWave heightAir tempDewpointWater temp
2017-Aug-24 04:24N 53°17' E 005°05'0 0.0
2017-Aug-24 04:00N 53°17' E 005°05'0 0.0
2017-Aug-24 03:30N 53°17' E 005°05'0 0.0
2017-Aug-24 03:00N 53°17' E 005°05'0 0.0
2017-Aug-24 02:30N 53°17' E 005°05'0 0.0
2017-Aug-24 02:00N 53°17' E 005°05'0 0.0
2017-Aug-24 01:30N 53°17' E 005°05'0 0.0
2017-Aug-24 00:57N 53°17' E 005°05'0 0.0
2017-Aug-24 00:30N 53°17' E 005°05'0 0.0
2017-Aug-23 23:57N 53°17' E 005°05'0 0.0
2017-Aug-23 23:30N 53°17' E 005°05'0 0.0
2017-Aug-23 22:57N 53°17' E 005°05'0 0.0
2017-Aug-23 22:30N 53°17' E 005°05'0 0.0
2017-Aug-23 21:57N 53°17' E 005°05'0 0.0
2017-Aug-23 21:30N 53°17' E 005°05'0 0.0
2017-Aug-23 21:00N 53°17' E 005°05'0 0.0
2017-Aug-23 20:30N 53°17' E 005°05'0 0.0
2017-Aug-23 20:00N 53°17' E 005°05'0 0.0
2017-Aug-23 19:30N 53°17' E 005°05'0 0.0
2017-Aug-23 18:59N 53°17' E 005°05'0 0.0
2017-Aug-23 18:29N 53°17' E 005°05'0 0.0
2017-Aug-23 17:59N 53°17' E 005°05'0 0.0
2017-Aug-23 17:29N 53°17' E 005°05'0 0.0
2017-Aug-23 16:59N 53°17' E 005°05'0 0.0
2017-Aug-23 16:29N 53°17' E 005°05'0 0.0
2017-Aug-23 15:56N 53°17' E 005°05'0 0.0
2017-Aug-23 15:29N 53°17' E 005°05'0 0.0
2017-Aug-23 14:56N 53°17' E 005°05'0 0.0
2017-Aug-23 14:29N 53°17' E 005°05'0 0.0
2017-Aug-23 13:29N 53°17' E 005°05'0 0.0
2017-Aug-23 12:59N 53°17' E 005°05'0 0.0
2017-Aug-23 12:29N 53°17' E 005°05'0 0.0
2017-Aug-23 11:59N 53°17' E 005°05'0 0.0
2017-Aug-23 11:29N 53°17' E 005°05'0 0.0
2017-Aug-23 10:59N 53°17' E 005°05'0 0.0
2017-Aug-23 10:29N 53°17' E 005°05'0 0.0
2017-Aug-23 09:53N 53°17' E 005°05'0 0.0
2017-Aug-23 09:29N 53°17' E 005°05'0 0.0
2017-Aug-23 08:56N 53°17' E 005°05'0 0.0
2017-Aug-23 08:26N 53°17' E 005°05'0 0.0
2017-Aug-23 07:59N 53°17' E 005°05'0 0.0
2017-Aug-23 07:29N 53°17' E 005°05'0 0.0
2017-Aug-23 06:59N 53°17' E 005°05'0 0.0
2017-Aug-23 06:23N 53°17' E 005°05'0 0.0
2017-Aug-23 05:56N 53°17' E 005°05'0 0.0
2017-Aug-23 05:29N 53°17' E 005°05'0 0.0
2017-Aug-23 04:59N 53°17' E 005°05'0 0.0
2017-Aug-23 04:30N 53°17' E 005°05'1 2.8
2017-Aug-23 04:00N 53°19' E 005°04'3 5.1
2017-Aug-23 03:30N 53°19' E 005°00'2 4.1
2017-Aug-23 03:00N 53°19' E 004°57'4 2.9
2017-Aug-23 01:35N 53°23' E 004°57'1 6.9
2017-Aug-23 01:24N 53°23' E 004°58'3 6.5
2017-Aug-23 00:59N 53°25' E 005°02'3 6.9
2017-Aug-23 00:30N 53°27' E 005°07'265 6.7
2017-Aug-21 08:52N 57°46' E 006°45'3 8.6
2017-Aug-21 08:31N 57°49' E 006°46'4 8.2
2017-Aug-21 08:00N 57°53' E 006°48'4 8.1
2017-Aug-21 07:30N 57°57' E 006°49'4 7.5
2017-Aug-21 07:01N 58°00' E 006°50'4 7.6
2017-Aug-21 06:31N 58°04' E 006°51'2 3.5
2017-Aug-21 05:58N 58°06' E 006°48'0 0.0
2017-Aug-21 05:28N 58°06' E 006°48'0 0.0
2017-Aug-21 04:58N 58°06' E 006°48'0 0.0
2017-Aug-21 04:28N 58°06' E 006°48'0 0.0
2017-Aug-21 03:58N 58°06' E 006°48'0 0.0
2017-Aug-21 03:28N 58°06' E 006°48'0 0.0
2017-Aug-21 02:58N 58°06' E 006°48'0 0.0
2017-Aug-21 02:28N 58°06' E 006°48'0 0.0
2017-Aug-21 01:58N 58°06' E 006°48'0 0.0
2017-Aug-21 01:28N 58°06' E 006°48'0 0.0
2017-Aug-21 00:58N 58°06' E 006°48'0 0.0
2017-Aug-21 00:28N 58°06' E 006°48'0 0.0
2017-Aug-20 23:58N 58°06' E 006°48'0 0.0
2017-Aug-20 23:28N 58°06' E 006°48'0 0.0
2017-Aug-20 22:58N 58°06' E 006°48'0 0.0
2017-Aug-20 22:28N 58°06' E 006°48'0 0.0
2017-Aug-20 21:58N 58°06' E 006°48'0 0.0
2017-Aug-20 21:28N 58°06' E 006°48'0 0.0
2017-Aug-20 20:58N 58°06' E 006°48'0 0.0
2017-Aug-20 20:28N 58°06' E 006°48'0 0.0
2017-Aug-20 19:58N 58°06' E 006°48'0 0.0
2017-Aug-20 19:28N 58°06' E 006°48'0 0.0
2017-Aug-20 18:58N 58°06' E 006°48'0 0.0
2017-Aug-20 18:28N 58°06' E 006°48'0 0.0
2017-Aug-20 17:58N 58°06' E 006°48'0 0.0
2017-Aug-20 17:28N 58°06' E 006°48'0 0.0
2017-Aug-20 16:58N 58°06' E 006°48'0 0.0
2017-Aug-20 16:28N 58°06' E 006°48'0 0.0
2017-Aug-20 15:58N 58°06' E 006°48'0 0.0
2017-Aug-20 15:28N 58°06' E 006°48'0 0.0
2017-Aug-20 14:58N 58°06' E 006°48'0 0.0
2017-Aug-20 14:28N 58°06' E 006°48'0 0.0
2017-Aug-20 13:58N 58°06' E 006°48'0 0.0
2017-Aug-20 13:28N 58°06' E 006°48'0 0.0
2017-Aug-20 12:58N 58°06' E 006°48'0 0.0
2017-Aug-20 12:28N 58°06' E 006°48'0 0.0
2017-Aug-20 11:58N 58°06' E 006°48'0 0.0
2017-Aug-20 11:28N 58°06' E 006°48'0 0.0
2017-Aug-20 10:58N 58°06' E 006°48'0 0.0
2017-Aug-20 10:28N 58°06' E 006°48'0 0.0
2017-Aug-20 09:58N 58°06' E 006°48'0 0.0
2017-Aug-20 09:28N 58°06' E 006°48'0 0.0
2017-Aug-20 08:58N 58°06' E 006°48'0 0.0
2017-Aug-20 08:28N 58°06' E 006°48'0 0.0
2017-Aug-20 07:58N 58°06' E 006°48'0 0.0
2017-Aug-20 07:28N 58°06' E 006°48'0 0.0
2017-Aug-20 06:55N 58°06' E 006°48'0 0.0
2017-Aug-20 06:28N 58°06' E 006°48'0 0.0
2017-Aug-20 05:58N 58°06' E 006°48'0 0.0
2017-Aug-20 05:28N 58°06' E 006°48'0 0.0
2017-Aug-20 04:58N 58°06' E 006°48'0 0.0
2017-Aug-20 04:28N 58°06' E 006°48'0 0.0
2017-Aug-20 03:58N 58°06' E 006°48'0 0.0
2017-Aug-20 03:28N 58°06' E 006°48'0 0.0
2017-Aug-20 02:58N 58°06' E 006°48'0 0.0
2017-Aug-20 02:28N 58°06' E 006°48'0 0.0
2017-Aug-20 01:58N 58°06' E 006°48'0 0.0
2017-Aug-20 01:28N 58°06' E 006°48'0 0.0
2017-Aug-20 00:58N 58°06' E 006°48'0 0.0
2017-Aug-20 00:28N 58°06' E 006°48'0 0.0
2017-Aug-19 23:58N 58°06' E 006°48'0 0.0
2017-Aug-19 23:28N 58°06' E 006°48'0 0.0
2017-Aug-19 22:58N 58°06' E 006°48'0 0.0
2017-Aug-19 22:28N 58°06' E 006°48'0 0.0
2017-Aug-19 21:58N 58°06' E 006°48'0 0.0
2017-Aug-19 21:28N 58°06' E 006°48'0 0.0
2017-Aug-19 20:58N 58°06' E 006°48'0 0.0
2017-Aug-19 20:28N 58°06' E 006°48'0 0.0
2017-Aug-19 19:58N 58°06' E 006°48'0 0.0
2017-Aug-19 19:28N 58°06' E 006°48'0 0.0
2017-Aug-19 18:58N 58°06' E 006°48'0 0.0
2017-Aug-19 18:28N 58°06' E 006°48'0 0.0
2017-Aug-19 17:58N 58°06' E 006°48'0 0.0
2017-Aug-19 17:28N 58°06' E 006°48'0 0.0
2017-Aug-19 16:58N 58°06' E 006°48'0 0.0
2017-Aug-19 16:28N 58°06' E 006°48'0 0.0
2017-Aug-19 15:58N 58°06' E 006°48'0 0.0
2017-Aug-19 15:28N 58°06' E 006°48'0 0.0
2017-Aug-19 14:58N 58°06' E 006°48'0 0.0
2017-Aug-19 13:58N 58°06' E 006°48'0 0.0
2017-Aug-19 13:28N 58°06' E 006°48'0 0.0
2017-Aug-19 12:58N 58°06' E 006°48'0 0.0
2017-Aug-19 12:28N 58°06' E 006°48'0 0.0
2017-Aug-19 11:58N 58°06' E 006°48'0 0.0
2017-Aug-19 11:28N 58°06' E 006°48'0 0.0
2017-Aug-19 10:58N 58°06' E 006°48'0 0.0
2017-Aug-19 10:28N 58°06' E 006°48'0 0.0
2017-Aug-19 09:58N 58°06' E 006°48'0 0.0
2017-Aug-19 09:28N 58°06' E 006°48'0 0.0
2017-Aug-19 08:58N 58°06' E 006°48'0 0.0
2017-Aug-19 08:28N 58°06' E 006°48'0 0.0
2017-Aug-19 07:58N 58°06' E 006°48'0 0.0
2017-Aug-19 07:28N 58°06' E 006°48'0 0.0
2017-Aug-19 06:58N 58°06' E 006°48'0 0.0
2017-Aug-19 06:28N 58°06' E 006°48'0 0.0
2017-Aug-19 05:58N 58°06' E 006°48'0 0.0
2017-Aug-19 05:28N 58°06' E 006°48'0 0.0
2017-Aug-19 04:58N 58°06' E 006°48'0 0.0
2017-Aug-19 04:28N 58°06' E 006°48'0 0.0
2017-Aug-19 03:58N 58°06' E 006°48'0 0.0
2017-Aug-19 03:28N 58°06' E 006°48'0 0.0
2017-Aug-19 02:58N 58°06' E 006°48'0 0.0
2017-Aug-19 02:28N 58°06' E 006°48'0 0.0
2017-Aug-19 01:58N 58°06' E 006°48'0 0.0
2017-Aug-19 01:28N 58°06' E 006°48'0 0.0
2017-Aug-19 00:58N 58°06' E 006°48'0 0.0
2017-Aug-19 00:28N 58°06' E 006°48'0 0.0
2017-Aug-18 23:58N 58°06' E 006°48'0 0.0
2017-Aug-18 23:28N 58°06' E 006°48'0 0.0
2017-Aug-18 22:58N 58°06' E 006°48'0 0.0
2017-Aug-18 22:28N 58°06' E 006°48'0 0.0
2017-Aug-18 21:58N 58°06' E 006°48'0 0.0
2017-Aug-18 21:28N 58°06' E 006°48'0 0.0
2017-Aug-18 20:58N 58°06' E 006°48'0 0.0
2017-Aug-18 20:28N 58°06' E 006°48'0 0.0
2017-Aug-18 19:58N 58°06' E 006°48'0 0.0
2017-Aug-18 19:28N 58°06' E 006°48'0 0.0
2017-Aug-18 18:58N 58°06' E 006°48'0 0.0
2017-Aug-18 18:28N 58°06' E 006°48'0 0.0
2017-Aug-18 17:58N 58°06' E 006°48'0 0.0
2017-Aug-18 17:28N 58°06' E 006°48'0 0.0
2017-Aug-18 16:58N 58°06' E 006°48'0 0.0
2017-Aug-18 16:28N 58°06' E 006°48'0 0.0
2017-Aug-18 15:58N 58°06' E 006°48'0 0.0
2017-Aug-18 15:28N 58°06' E 006°48'0 0.0
2017-Aug-18 14:58N 58°06' E 006°48'0 0.0
2017-Aug-18 13:58N 58°06' E 006°48'0 0.0
2017-Aug-18 13:28N 58°06' E 006°48'0 0.0
2017-Aug-18 12:58N 58°06' E 006°48'0 0.0
2017-Aug-18 12:28N 58°06' E 006°48'0 0.0
2017-Aug-18 11:58N 58°06' E 006°48'0 0.0
2017-Aug-18 11:28N 58°06' E 006°48'0 0.0
2017-Aug-18 10:58N 58°06' E 006°48'0 0.0
2017-Aug-18 10:28N 58°06' E 006°48'0 0.0
2017-Aug-18 09:58N 58°06' E 006°48'0 0.0
2017-Aug-18 09:28N 58°06' E 006°48'0 0.0
2017-Aug-18 08:58N 58°06' E 006°48'0 0.0
2017-Aug-18 08:28N 58°06' E 006°48'0 0.0
2017-Aug-18 07:58N 58°06' E 006°48'0 0.0
2017-Aug-18 07:28N 58°06' E 006°48'0 0.0
2017-Aug-18 06:58N 58°06' E 006°48'0 0.0
2017-Aug-18 06:28N 58°06' E 006°48'0 0.0
2017-Aug-18 05:58N 58°06' E 006°48'0 0.0
2017-Aug-18 05:28N 58°06' E 006°48'0 0.0
2017-Aug-18 04:58N 58°06' E 006°48'0 0.0
2017-Aug-18 04:28N 58°06' E 006°48'0 0.0
2017-Aug-18 03:58N 58°06' E 006°48'0 0.0
2017-Aug-18 03:25N 58°06' E 006°48'0 0.0
2017-Aug-18 02:58N 58°06' E 006°48'0 0.0
2017-Aug-18 02:28N 58°06' E 006°48'0 0.0
2017-Aug-18 01:58N 58°06' E 006°48'0 0.0
2017-Aug-18 01:28N 58°06' E 006°48'0 0.0
2017-Aug-18 00:58N 58°06' E 006°48'0 0.0
2017-Aug-18 00:28N 58°06' E 006°48'0 0.0
2017-Aug-17 23:58N 58°06' E 006°48'0 0.0
2017-Aug-17 23:28N 58°06' E 006°48'0 0.0
2017-Aug-17 22:58N 58°06' E 006°48'0 0.0
2017-Aug-17 22:28N 58°06' E 006°48'0 0.0
2017-Aug-17 21:58N 58°06' E 006°48'0 0.0
2017-Aug-17 21:28N 58°06' E 006°48'0 0.0
2017-Aug-17 20:58N 58°06' E 006°48'0 0.0
2017-Aug-17 20:28N 58°06' E 006°48'0 0.0
2017-Aug-17 19:58N 58°06' E 006°48'0 0.0
2017-Aug-17 19:28N 58°06' E 006°48'0 0.0
2017-Aug-17 18:58N 58°06' E 006°48'0 0.0
2017-Aug-17 18:28N 58°06' E 006°48'0 0.0
2017-Aug-17 17:58N 58°06' E 006°48'0 0.0
2017-Aug-17 17:28N 58°06' E 006°48'0 0.0
2017-Aug-17 16:58N 58°06' E 006°48'0 0.0
2017-Aug-17 16:28N 58°06' E 006°48'0 0.0
2017-Aug-17 15:58N 58°06' E 006°48'0 0.0
2017-Aug-17 15:28N 58°06' E 006°48'0 0.0
2017-Aug-17 14:58N 58°06' E 006°48'0 0.0
2017-Aug-17 14:28N 58°06' E 006°48'0 0.0
2017-Aug-17 13:58N 58°06' E 006°48'0 0.0
2017-Aug-17 13:28N 58°06' E 006°48'0 0.0
2017-Aug-17 12:58N 58°06' E 006°48'0 0.0
2017-Aug-17 12:28N 58°06' E 006°48'0 0.0
2017-Aug-17 11:58N 58°06' E 006°48'0 0.0
2017-Aug-17 11:28N 58°06' E 006°48'0 0.0
2017-Aug-17 10:58N 58°06' E 006°48'0 0.0
2017-Aug-17 10:28N 58°06' E 006°48'0 0.0
2017-Aug-17 09:58N 58°06' E 006°48'0 0.0
2017-Aug-17 09:28N 58°06' E 006°48'0 0.0
2017-Aug-17 08:58N 58°06' E 006°48'0 0.0
2017-Aug-17 08:28N 58°06' E 006°48'0 0.0
2017-Aug-17 07:58N 58°06' E 006°48'0 0.0
2017-Aug-17 07:28N 58°06' E 006°48'0 0.0
2017-Aug-17 06:58N 58°06' E 006°48'0 0.0
2017-Aug-17 06:28N 58°06' E 006°48'0 0.0
2017-Aug-17 05:58N 58°06' E 006°48'0 0.0
2017-Aug-17 05:28N 58°06' E 006°48'0 0.0
2017-Aug-17 04:58N 58°06' E 006°48'0 0.0
2017-Aug-17 04:28N 58°06' E 006°48'0 0.0
2017-Aug-17 03:58N 58°06' E 006°48'0 0.0
2017-Aug-17 03:28N 58°06' E 006°48'0 0.0
2017-Aug-17 02:58N 58°06' E 006°48'0 0.0
2017-Aug-17 02:28N 58°06' E 006°48'0 0.0
2017-Aug-17 01:58N 58°06' E 006°48'0 0.0
2017-Aug-17 01:25N 58°06' E 006°48'0 0.0
2017-Aug-17 00:58N 58°06' E 006°48'0 0.0
2017-Aug-17 00:25N 58°06' E 006°48'0 0.0
2017-Aug-16 23:55N 58°06' E 006°48'0 0.0
2017-Aug-16 23:28N 58°06' E 006°48'0 0.0
2017-Aug-16 22:58N 58°06' E 006°48'0 0.0
2017-Aug-16 22:28N 58°06' E 006°48'0 0.0
2017-Aug-16 21:58N 58°06' E 006°48'0 0.0
2017-Aug-16 21:28N 58°06' E 006°48'0 0.0
2017-Aug-16 20:58N 58°06' E 006°48'0 0.0
2017-Aug-16 20:28N 58°06' E 006°48'0 0.0
2017-Aug-16 19:58N 58°06' E 006°48'0 0.0
2017-Aug-16 19:28N 58°06' E 006°48'0 0.0
2017-Aug-16 18:58N 58°06' E 006°48'0 0.0
2017-Aug-16 18:28N 58°06' E 006°48'0 0.0
2017-Aug-16 17:58N 58°06' E 006°48'0 0.0
2017-Aug-16 17:28N 58°06' E 006°48'0 0.0
2017-Aug-16 16:58N 58°06' E 006°48'0 0.0
2017-Aug-16 16:28N 58°06' E 006°48'0 0.0
2017-Aug-16 15:58N 58°06' E 006°48'0 0.0
2017-Aug-16 15:28N 58°06' E 006°48'0 0.0
2017-Aug-16 14:55N 58°06' E 006°48'0 0.0
2017-Aug-16 14:28N 58°06' E 006°48'0 0.0
2017-Aug-16 13:58N 58°06' E 006°48'0 0.0
2017-Aug-16 13:28N 58°06' E 006°48'0 0.0
2017-Aug-16 12:58N 58°06' E 006°48'0 0.0
2017-Aug-16 12:28N 58°06' E 006°48'0 0.0
2017-Aug-16 11:58N 58°06' E 006°48'0 0.0
2017-Aug-16 11:28N 58°06' E 006°48'0 0.0
2017-Aug-16 10:58N 58°06' E 006°48'0 0.0
2017-Aug-16 10:28N 58°06' E 006°48'0 0.0
2017-Aug-16 09:58N 58°06' E 006°48'0 0.0
2017-Aug-16 09:28N 58°06' E 006°48'0 0.0
2017-Aug-16 08:58N 58°06' E 006°48'0 0.0
2017-Aug-16 08:28N 58°06' E 006°48'0 0.0
2017-Aug-16 07:58N 58°06' E 006°48'0 0.0
2017-Aug-16 07:28N 58°06' E 006°48'0 0.0
2017-Aug-16 06:58N 58°06' E 006°48'0 0.0
2017-Aug-16 06:28N 58°06' E 006°48'0 0.0
2017-Aug-16 05:58N 58°06' E 006°48'0 0.0
2017-Aug-16 05:28N 58°06' E 006°48'0 0.0
2017-Aug-16 04:58N 58°06' E 006°48'0 0.0
2017-Aug-16 04:28N 58°06' E 006°48'0 0.0
2017-Aug-16 03:58N 58°06' E 006°48'0 0.0
2017-Aug-16 03:28N 58°06' E 006°48'0 0.0
2017-Aug-16 02:58N 58°06' E 006°48'0 0.0
2017-Aug-16 02:28N 58°06' E 006°48'0 0.0
2017-Aug-16 01:58N 58°06' E 006°48'0 0.0
2017-Aug-16 01:28N 58°06' E 006°48'0 0.0
2017-Aug-16 00:58N 58°06' E 006°48'0 0.0
2017-Aug-16 00:28N 58°06' E 006°48'0 0.0
2017-Aug-15 23:58N 58°06' E 006°48'0 0.0
2017-Aug-15 23:28N 58°06' E 006°48'0 0.0
2017-Aug-15 22:58N 58°06' E 006°48'0 0.0
2017-Aug-15 22:28N 58°06' E 006°48'0 0.0
2017-Aug-15 21:58N 58°06' E 006°48'0 0.0
2017-Aug-15 21:28N 58°06' E 006°48'0 0.0
2017-Aug-15 20:55N 58°06' E 006°48'0 0.0
2017-Aug-15 20:28N 58°06' E 006°48'0 0.0
2017-Aug-15 19:58N 58°06' E 006°48'0 0.0
2017-Aug-15 19:25N 58°06' E 006°48'0 0.0
2017-Aug-15 18:58N 58°06' E 006°48'0 0.0
2017-Aug-15 18:28N 58°06' E 006°48'0 0.0
2017-Aug-15 17:58N 58°06' E 006°48'0 0.0
2017-Aug-15 17:28N 58°06' E 006°48'0 0.0
2017-Aug-15 16:58N 58°06' E 006°48'0 0.0
2017-Aug-15 16:28N 58°06' E 006°48'0 0.0
2017-Aug-15 15:58N 58°06' E 006°48'0 0.0
2017-Aug-15 15:28N 58°06' E 006°48'0 0.0
2017-Aug-15 14:58N 58°06' E 006°48'0 0.0
2017-Aug-15 14:22N 58°06' E 006°48'0 0.0
2017-Aug-15 13:58N 58°06' E 006°48'0 0.0
2017-Aug-15 13:28N 58°06' E 006°48'0 0.0
2017-Aug-15 12:58N 58°06' E 006°48'0 0.0
2017-Aug-15 12:28N 58°06' E 006°48'0 0.0
2017-Aug-15 11:58N 58°06' E 006°48'0 0.0
2017-Aug-15 11:28N 58°06' E 006°48'0 0.0
2017-Aug-15 10:58N 58°06' E 006°48'0 0.0
2017-Aug-15 10:28N 58°06' E 006°48'0 0.0
2017-Aug-15 09:58N 58°06' E 006°48'0 0.0
2017-Aug-15 09:28N 58°06' E 006°48'0 0.0
2017-Aug-15 08:58N 58°06' E 006°48'0 0.0
2017-Aug-15 08:28N 58°06' E 006°48'0 0.0
2017-Aug-15 07:58N 58°06' E 006°48'0 0.0
2017-Aug-15 07:28N 58°06' E 006°48'0 0.0
2017-Aug-15 06:58N 58°06' E 006°48'0 0.0
2017-Aug-15 06:28N 58°06' E 006°48'0 0.0
2017-Aug-15 05:58N 58°06' E 006°48'0 0.0
2017-Aug-15 05:28N 58°06' E 006°48'0 0.0
2017-Aug-15 04:58N 58°06' E 006°48'0 0.0
2017-Aug-15 04:28N 58°06' E 006°48'0 0.0
2017-Aug-15 03:58N 58°06' E 006°48'0 0.0
2017-Aug-15 03:28N 58°06' E 006°48'0 0.0
2017-Aug-15 02:58N 58°06' E 006°48'0 0.0
2017-Aug-15 02:28N 58°06' E 006°48'0 0.0
2017-Aug-15 01:58N 58°06' E 006°48'0 0.0
2017-Aug-15 01:28N 58°06' E 006°48'0 0.0
2017-Aug-15 00:58N 58°06' E 006°48'0 0.0
2017-Aug-15 00:25N 58°06' E 006°48'0 0.0
2017-Aug-14 23:58N 58°06' E 006°48'0 0.0
2017-Aug-14 23:28N 58°06' E 006°48'0 0.0
2017-Aug-14 22:58N 58°06' E 006°48'0 0.0
2017-Aug-14 22:28N 58°06' E 006°48'0 0.0
2017-Aug-14 21:58N 58°06' E 006°48'0 0.0
2017-Aug-14 21:28N 58°06' E 006°48'0 0.0
2017-Aug-14 20:58N 58°06' E 006°48'0 0.0
2017-Aug-14 20:28N 58°06' E 006°48'0 0.0
2017-Aug-14 19:58N 58°06' E 006°48'0 0.0
2017-Aug-14 19:28N 58°06' E 006°48'0 0.0
2017-Aug-14 18:58N 58°06' E 006°48'0 0.0
2017-Aug-14 18:28N 58°06' E 006°48'0 0.0
2017-Aug-14 17:58N 58°06' E 006°48'0 0.0
2017-Aug-14 17:28N 58°06' E 006°48'0 0.0
2017-Aug-14 16:58N 58°06' E 006°48'0 0.0
2017-Aug-14 16:28N 58°06' E 006°48'0 0.0
2017-Aug-14 15:58N 58°06' E 006°48'0 0.0
2017-Aug-14 15:28N 58°06' E 006°48'0 0.0
2017-Aug-14 14:55N 58°06' E 006°48'0 0.0
2017-Aug-14 14:25N 58°06' E 006°48'0 0.0
2017-Aug-14 13:55N 58°06' E 006°48'0 0.0
2017-Aug-14 13:28N 58°06' E 006°48'0 0.0
2017-Aug-14 12:58N 58°06' E 006°48'0 0.0
2017-Aug-14 12:28N 58°06' E 006°48'0 0.4
2017-Aug-14 12:00N 58°05' E 006°49'2 3.5
2017-Aug-14 11:30N 58°04' E 006°49'3 5.2
2017-Aug-14 11:00N 58°03' E 006°45'2 4.8
2017-Aug-14 10:30N 58°03' E 006°40'3 5.3
2017-Aug-14 10:00N 58°04' E 006°36'3 5.5
2017-Aug-14 09:30N 58°06' E 006°32'3 5.2
2017-Aug-14 09:00N 58°08' E 006°29'2 5.0
2017-Aug-14 08:31N 58°10' E 006°26'3 5.2
2017-Aug-14 08:00N 58°12' E 006°22'3 4.9
2017-Aug-14 07:30N 58°13' E 006°19'3 6.0
2017-Aug-14 07:01N 58°16' E 006°15'3 5.9
2017-Aug-14 06:30N 58°18' E 006°11'3 6.2
2017-Aug-14 06:00N 58°20' E 006°08'3 5.8
2017-Aug-14 05:30N 58°22' E 006°04'3 5.9
2017-Aug-14 05:00N 58°24' E 005°60'3 5.3
2017-Aug-14 04:30N 58°27' E 006°00'  
Track history (hours):
 
Tides and Currents Weather Stations Pressure Air Temp Water Temp Dewpoint Dewpoint Depression Visibility Wind Speed Wind Dir Waves Ship Positions

Wayana

Last reported at 2017-Aug-24 04:24 UTC. Time now 2017-Aug-24 04:56 UTC.
Position N 53°17' E 005°05'.

Length 14 m.

Type: Sailing vessel. MMSI: 244020670.

Date/timePositionNaut miles runAvg speedWind from/ knotsBaromVisibWave heightAir tempDewpointWater temp
2017-Aug-24 04:24N 53°17' E 005°05'0 0.0
2017-Aug-24 04:00N 53°17' E 005°05'0 0.0
2017-Aug-24 03:30N 53°17' E 005°05'0 0.0
2017-Aug-24 03:00N 53°17' E 005°05'0 0.0
2017-Aug-24 02:30N 53°17' E 005°05'0 0.0
2017-Aug-24 02:00N 53°17' E 005°05'0 0.0
2017-Aug-24 01:30N 53°17' E 005°05'0 0.0
2017-Aug-24 00:57N 53°17' E 005°05'0 0.0
2017-Aug-24 00:30N 53°17' E 005°05'0 0.0
2017-Aug-23 23:57N 53°17' E 005°05'0 0.0
2017-Aug-23 23:30N 53°17' E 005°05'0 0.0
2017-Aug-23 22:57N 53°17' E 005°05'0 0.0
2017-Aug-23 22:30N 53°17' E 005°05'0 0.0
2017-Aug-23 21:57N 53°17' E 005°05'0 0.0
2017-Aug-23 21:30N 53°17' E 005°05'0 0.0
2017-Aug-23 21:00N 53°17' E 005°05'0 0.0
2017-Aug-23 20:30N 53°17' E 005°05'0 0.0
2017-Aug-23 20:00N 53°17' E 005°05'0 0.0
2017-Aug-23 19:30N 53°17' E 005°05'0 0.0
2017-Aug-23 18:59N 53°17' E 005°05'0 0.0
2017-Aug-23 18:29N 53°17' E 005°05'0 0.0
2017-Aug-23 17:59N 53°17' E 005°05'0 0.0
2017-Aug-23 17:29N 53°17' E 005°05'0 0.0
2017-Aug-23 16:59N 53°17' E 005°05'0 0.0
2017-Aug-23 16:29N 53°17' E 005°05'0 0.0
2017-Aug-23 15:56N 53°17' E 005°05'0 0.0
2017-Aug-23 15:29N 53°17' E 005°05'0 0.0
2017-Aug-23 14:56N 53°17' E 005°05'0 0.0
2017-Aug-23 14:29N 53°17' E 005°05'0 0.0
2017-Aug-23 13:29N 53°17' E 005°05'0 0.0
2017-Aug-23 12:59N 53°17' E 005°05'0 0.0
2017-Aug-23 12:29N 53°17' E 005°05'0 0.0
2017-Aug-23 11:59N 53°17' E 005°05'0 0.0
2017-Aug-23 11:29N 53°17' E 005°05'0 0.0
2017-Aug-23 10:59N 53°17' E 005°05'0 0.0
2017-Aug-23 10:29N 53°17' E 005°05'0 0.0
2017-Aug-23 09:53N 53°17' E 005°05'0 0.0
2017-Aug-23 09:29N 53°17' E 005°05'0 0.0
2017-Aug-23 08:56N 53°17' E 005°05'0 0.0
2017-Aug-23 08:26N 53°17' E 005°05'0 0.0
2017-Aug-23 07:59N 53°17' E 005°05'0 0.0
2017-Aug-23 07:29N 53°17' E 005°05'0 0.0
2017-Aug-23 06:59N 53°17' E 005°05'0 0.0
2017-Aug-23 06:23N 53°17' E 005°05'0 0.0
2017-Aug-23 05:56N 53°17' E 005°05'0 0.0
2017-Aug-23 05:29N 53°17' E 005°05'0 0.0
2017-Aug-23 04:59N 53°17' E 005°05'0 0.0
2017-Aug-23 04:30N 53°17' E 005°05'1 2.8
2017-Aug-23 04:00N 53°19' E 005°04'3 5.1
2017-Aug-23 03:30N 53°19' E 005°00'2 4.1
2017-Aug-23 03:00N 53°19' E 004°57'4 2.9
2017-Aug-23 01:35N 53°23' E 004°57'1 6.9
2017-Aug-23 01:24N 53°23' E 004°58'3 6.5
2017-Aug-23 00:59N 53°25' E 005°02'3 6.9
2017-Aug-23 00:30N 53°27' E 005°07'265 6.7
2017-Aug-21 08:52N 57°46' E 006°45'3 8.6
2017-Aug-21 08:31N 57°49' E 006°46'4 8.2
2017-Aug-21 08:00N 57°53' E 006°48'4 8.1
2017-Aug-21 07:30N 57°57' E 006°49'4 7.5
2017-Aug-21 07:01N 58°00' E 006°50'4 7.6
2017-Aug-21 06:31N 58°04' E 006°51'2 3.5
2017-Aug-21 05:58N 58°06' E 006°48'0 0.0
2017-Aug-21 05:28N 58°06' E 006°48'0 0.0
2017-Aug-21 04:58N 58°06' E 006°48'0 0.0
2017-Aug-21 04:28N 58°06' E 006°48'0 0.0
2017-Aug-21 03:58N 58°06' E 006°48'0 0.0
2017-Aug-21 03:28N 58°06' E 006°48'0 0.0
2017-Aug-21 02:58N 58°06' E 006°48'0 0.0
2017-Aug-21 02:28N 58°06' E 006°48'0 0.0
2017-Aug-21 01:58N 58°06' E 006°48'0 0.0
2017-Aug-21 01:28N 58°06' E 006°48'0 0.0
2017-Aug-21 00:58N 58°06' E 006°48'0 0.0
2017-Aug-21 00:28N 58°06' E 006°48'0 0.0
2017-Aug-20 23:58N 58°06' E 006°48'0 0.0
2017-Aug-20 23:28N 58°06' E 006°48'0 0.0
2017-Aug-20 22:58N 58°06' E 006°48'0 0.0
2017-Aug-20 22:28N 58°06' E 006°48'0 0.0
2017-Aug-20 21:58N 58°06' E 006°48'0 0.0
2017-Aug-20 21:28N 58°06' E 006°48'0 0.0
2017-Aug-20 20:58N 58°06' E 006°48'0 0.0
2017-Aug-20 20:28N 58°06' E 006°48'0 0.0
2017-Aug-20 19:58N 58°06' E 006°48'0 0.0
2017-Aug-20 19:28N 58°06' E 006°48'0 0.0
2017-Aug-20 18:58N 58°06' E 006°48'0 0.0
2017-Aug-20 18:28N 58°06' E 006°48'0 0.0
2017-Aug-20 17:58N 58°06' E 006°48'0 0.0
2017-Aug-20 17:28N 58°06' E 006°48'0 0.0
2017-Aug-20 16:58N 58°06' E 006°48'0 0.0
2017-Aug-20 16:28N 58°06' E 006°48'0 0.0
2017-Aug-20 15:58N 58°06' E 006°48'0 0.0
2017-Aug-20 15:28N 58°06' E 006°48'0 0.0
2017-Aug-20 14:58N 58°06' E 006°48'0 0.0
2017-Aug-20 14:28N 58°06' E 006°48'0 0.0
2017-Aug-20 13:58N 58°06' E 006°48'0 0.0
2017-Aug-20 13:28N 58°06' E 006°48'0 0.0
2017-Aug-20 12:58N 58°06' E 006°48'0 0.0
2017-Aug-20 12:28N 58°06' E 006°48'0 0.0
2017-Aug-20 11:58N 58°06' E 006°48'0 0.0
2017-Aug-20 11:28N 58°06' E 006°48'0 0.0
2017-Aug-20 10:58N 58°06' E 006°48'0 0.0
2017-Aug-20 10:28N 58°06' E 006°48'0 0.0
2017-Aug-20 09:58N 58°06' E 006°48'0 0.0
2017-Aug-20 09:28N 58°06' E 006°48'0 0.0
2017-Aug-20 08:58N 58°06' E 006°48'0 0.0
2017-Aug-20 08:28N 58°06' E 006°48'0 0.0
2017-Aug-20 07:58N 58°06' E 006°48'0 0.0
2017-Aug-20 07:28N 58°06' E 006°48'0 0.0
2017-Aug-20 06:55N 58°06' E 006°48'0 0.0
2017-Aug-20 06:28N 58°06' E 006°48'0 0.0
2017-Aug-20 05:58N 58°06' E 006°48'0 0.0
2017-Aug-20 05:28N 58°06' E 006°48'0 0.0
2017-Aug-20 04:58N 58°06' E 006°48'0 0.0
2017-Aug-20 04:28N 58°06' E 006°48'0 0.0
2017-Aug-20 03:58N 58°06' E 006°48'0 0.0
2017-Aug-20 03:28N 58°06' E 006°48'0 0.0
2017-Aug-20 02:58N 58°06' E 006°48'0 0.0
2017-Aug-20 02:28N 58°06' E 006°48'0 0.0
2017-Aug-20 01:58N 58°06' E 006°48'0 0.0
2017-Aug-20 01:28N 58°06' E 006°48'0 0.0
2017-Aug-20 00:58N 58°06' E 006°48'0 0.0
2017-Aug-20 00:28N 58°06' E 006°48'0 0.0
2017-Aug-19 23:58N 58°06' E 006°48'0 0.0
2017-Aug-19 23:28N 58°06' E 006°48'0 0.0
2017-Aug-19 22:58N 58°06' E 006°48'0 0.0
2017-Aug-19 22:28N 58°06' E 006°48'0 0.0
2017-Aug-19 21:58N 58°06' E 006°48'0 0.0
2017-Aug-19 21:28N 58°06' E 006°48'0 0.0
2017-Aug-19 20:58N 58°06' E 006°48'0 0.0
2017-Aug-19 20:28N 58°06' E 006°48'0 0.0
2017-Aug-19 19:58N 58°06' E 006°48'0 0.0
2017-Aug-19 19:28N 58°06' E 006°48'0 0.0
2017-Aug-19 18:58N 58°06' E 006°48'0 0.0
2017-Aug-19 18:28N 58°06' E 006°48'0 0.0
2017-Aug-19 17:58N 58°06' E 006°48'0 0.0
2017-Aug-19 17:28N 58°06' E 006°48'0 0.0
2017-Aug-19 16:58N 58°06' E 006°48'0 0.0
2017-Aug-19 16:28N 58°06' E 006°48'0 0.0
2017-Aug-19 15:58N 58°06' E 006°48'0 0.0
2017-Aug-19 15:28N 58°06' E 006°48'0 0.0
2017-Aug-19 14:58N 58°06' E 006°48'0 0.0
2017-Aug-19 13:58N 58°06' E 006°48'0 0.0
2017-Aug-19 13:28N 58°06' E 006°48'0 0.0
2017-Aug-19 12:58N 58°06' E 006°48'0 0.0
2017-Aug-19 12:28N 58°06' E 006°48'0 0.0
2017-Aug-19 11:58N 58°06' E 006°48'0 0.0
2017-Aug-19 11:28N 58°06' E 006°48'0 0.0
2017-Aug-19 10:58N 58°06' E 006°48'0 0.0
2017-Aug-19 10:28N 58°06' E 006°48'0 0.0
2017-Aug-19 09:58N 58°06' E 006°48'0 0.0
2017-Aug-19 09:28N 58°06' E 006°48'0 0.0
2017-Aug-19 08:58N 58°06' E 006°48'0 0.0
2017-Aug-19 08:28N 58°06' E 006°48'0 0.0
2017-Aug-19 07:58N 58°06' E 006°48'0 0.0
2017-Aug-19 07:28N 58°06' E 006°48'0 0.0
2017-Aug-19 06:58N 58°06' E 006°48'0 0.0
2017-Aug-19 06:28N 58°06' E 006°48'0 0.0
2017-Aug-19 05:58N 58°06' E 006°48'0 0.0
2017-Aug-19 05:28N 58°06' E 006°48'0 0.0
2017-Aug-19 04:58N 58°06' E 006°48'0 0.0
2017-Aug-19 04:28N 58°06' E 006°48'0 0.0
2017-Aug-19 03:58N 58°06' E 006°48'0 0.0
2017-Aug-19 03:28N 58°06' E 006°48'0 0.0
2017-Aug-19 02:58N 58°06' E 006°48'0 0.0
2017-Aug-19 02:28N 58°06' E 006°48'0 0.0
2017-Aug-19 01:58N 58°06' E 006°48'0 0.0
2017-Aug-19 01:28N 58°06' E 006°48'0 0.0
2017-Aug-19 00:58N 58°06' E 006°48'0 0.0
2017-Aug-19 00:28N 58°06' E 006°48'0 0.0
2017-Aug-18 23:58N 58°06' E 006°48'0 0.0
2017-Aug-18 23:28N 58°06' E 006°48'0 0.0
2017-Aug-18 22:58N 58°06' E 006°48'0 0.0
2017-Aug-18 22:28N 58°06' E 006°48'0 0.0
2017-Aug-18 21:58N 58°06' E 006°48'0 0.0
2017-Aug-18 21:28N 58°06' E 006°48'0 0.0
2017-Aug-18 20:58N 58°06' E 006°48'0 0.0
2017-Aug-18 20:28N 58°06' E 006°48'0 0.0
2017-Aug-18 19:58N 58°06' E 006°48'0 0.0
2017-Aug-18 19:28N 58°06' E 006°48'0 0.0
2017-Aug-18 18:58N 58°06' E 006°48'0 0.0
2017-Aug-18 18:28N 58°06' E 006°48'0 0.0
2017-Aug-18 17:58N 58°06' E 006°48'0 0.0
2017-Aug-18 17:28N 58°06' E 006°48'0 0.0
2017-Aug-18 16:58N 58°06' E 006°48'0 0.0
2017-Aug-18 16:28N 58°06' E 006°48'0 0.0
2017-Aug-18 15:58N 58°06' E 006°48'0 0.0
2017-Aug-18 15:28N 58°06' E 006°48'0 0.0
2017-Aug-18 14:58N 58°06' E 006°48'0 0.0
2017-Aug-18 13:58N 58°06' E 006°48'0 0.0
2017-Aug-18 13:28N 58°06' E 006°48'0 0.0
2017-Aug-18 12:58N 58°06' E 006°48'0 0.0
2017-Aug-18 12:28N 58°06' E 006°48'0 0.0
2017-Aug-18 11:58N 58°06' E 006°48'0 0.0
2017-Aug-18 11:28N 58°06' E 006°48'0 0.0
2017-Aug-18 10:58N 58°06' E 006°48'0 0.0
2017-Aug-18 10:28N 58°06' E 006°48'0 0.0
2017-Aug-18 09:58N 58°06' E 006°48'0 0.0
2017-Aug-18 09:28N 58°06' E 006°48'0 0.0
2017-Aug-18 08:58N 58°06' E 006°48'0 0.0
2017-Aug-18 08:28N 58°06' E 006°48'0 0.0
2017-Aug-18 07:58N 58°06' E 006°48'0 0.0
2017-Aug-18 07:28N 58°06' E 006°48'0 0.0
2017-Aug-18 06:58N 58°06' E 006°48'0 0.0
2017-Aug-18 06:28N 58°06' E 006°48'0 0.0
2017-Aug-18 05:58N 58°06' E 006°48'0 0.0
2017-Aug-18 05:28N 58°06' E 006°48'0 0.0
2017-Aug-18 04:58N 58°06' E 006°48'0 0.0
2017-Aug-18 04:28N 58°06' E 006°48'0 0.0
2017-Aug-18 03:58N 58°06' E 006°48'0 0.0
2017-Aug-18 03:25N 58°06' E 006°48'0 0.0
2017-Aug-18 02:58N 58°06' E 006°48'0 0.0
2017-Aug-18 02:28N 58°06' E 006°48'0 0.0
2017-Aug-18 01:58N 58°06' E 006°48'0 0.0
2017-Aug-18 01:28N 58°06' E 006°48'0 0.0
2017-Aug-18 00:58N 58°06' E 006°48'0 0.0
2017-Aug-18 00:28N 58°06' E 006°48'0 0.0
2017-Aug-17 23:58N 58°06' E 006°48'0 0.0
2017-Aug-17 23:28N 58°06' E 006°48'0 0.0
2017-Aug-17 22:58N 58°06' E 006°48'0 0.0
2017-Aug-17 22:28N 58°06' E 006°48'0 0.0
2017-Aug-17 21:58N 58°06' E 006°48'0 0.0
2017-Aug-17 21:28N 58°06' E 006°48'0 0.0
2017-Aug-17 20:58N 58°06' E 006°48'0 0.0
2017-Aug-17 20:28N 58°06' E 006°48'0 0.0
2017-Aug-17 19:58N 58°06' E 006°48'0 0.0
2017-Aug-17 19:28N 58°06' E 006°48'0 0.0
2017-Aug-17 18:58N 58°06' E 006°48'0 0.0
2017-Aug-17 18:28N 58°06' E 006°48'0 0.0
2017-Aug-17 17:58N 58°06' E 006°48'0 0.0
2017-Aug-17 17:28N 58°06' E 006°48'0 0.0
2017-Aug-17 16:58N 58°06' E 006°48'0 0.0
2017-Aug-17 16:28N 58°06' E 006°48'0 0.0
2017-Aug-17 15:58N 58°06' E 006°48'0 0.0
2017-Aug-17 15:28N 58°06' E 006°48'0 0.0
2017-Aug-17 14:58N 58°06' E 006°48'0 0.0
2017-Aug-17 14:28N 58°06' E 006°48'0 0.0
2017-Aug-17 13:58N 58°06' E 006°48'0 0.0
2017-Aug-17 13:28N 58°06' E 006°48'0 0.0
2017-Aug-17 12:58N 58°06' E 006°48'0 0.0
2017-Aug-17 12:28N 58°06' E 006°48'0 0.0
2017-Aug-17 11:58N 58°06' E 006°48'0 0.0
2017-Aug-17 11:28N 58°06' E 006°48'0 0.0
2017-Aug-17 10:58N 58°06' E 006°48'0 0.0
2017-Aug-17 10:28N 58°06' E 006°48'0 0.0
2017-Aug-17 09:58N 58°06' E 006°48'0 0.0
2017-Aug-17 09:28N 58°06' E 006°48'0 0.0
2017-Aug-17 08:58N 58°06' E 006°48'0 0.0
2017-Aug-17 08:28N 58°06' E 006°48'0 0.0
2017-Aug-17 07:58N 58°06' E 006°48'0 0.0
2017-Aug-17 07:28N 58°06' E 006°48'0 0.0
2017-Aug-17 06:58N 58°06' E 006°48'0 0.0
2017-Aug-17 06:28N 58°06' E 006°48'0 0.0
2017-Aug-17 05:58N 58°06' E 006°48'0 0.0
2017-Aug-17 05:28N 58°06' E 006°48'0 0.0
2017-Aug-17 04:58N 58°06' E 006°48'0 0.0
2017-Aug-17 04:28N 58°06' E 006°48'0 0.0
2017-Aug-17 03:58N 58°06' E 006°48'0 0.0
2017-Aug-17 03:28N 58°06' E 006°48'0 0.0
2017-Aug-17 02:58N 58°06' E 006°48'0 0.0
2017-Aug-17 02:28N 58°06' E 006°48'0 0.0
2017-Aug-17 01:58N 58°06' E 006°48'0 0.0
2017-Aug-17 01:25N 58°06' E 006°48'0 0.0
2017-Aug-17 00:58N 58°06' E 006°48'0 0.0
2017-Aug-17 00:25N 58°06' E 006°48'0 0.0
2017-Aug-16 23:55N 58°06' E 006°48'0 0.0
2017-Aug-16 23:28N 58°06' E 006°48'0 0.0
2017-Aug-16 22:58N 58°06' E 006°48'0 0.0
2017-Aug-16 22:28N 58°06' E 006°48'0 0.0
2017-Aug-16 21:58N 58°06' E 006°48'0 0.0
2017-Aug-16 21:28N 58°06' E 006°48'0 0.0
2017-Aug-16 20:58N 58°06' E 006°48'0 0.0
2017-Aug-16 20:28N 58°06' E 006°48'0 0.0
2017-Aug-16 19:58N 58°06' E 006°48'0 0.0
2017-Aug-16 19:28N 58°06' E 006°48'0 0.0
2017-Aug-16 18:58N 58°06' E 006°48'0 0.0
2017-Aug-16 18:28N 58°06' E 006°48'0 0.0
2017-Aug-16 17:58N 58°06' E 006°48'0 0.0
2017-Aug-16 17:28N 58°06' E 006°48'0 0.0
2017-Aug-16 16:58N 58°06' E 006°48'0 0.0
2017-Aug-16 16:28N 58°06' E 006°48'0 0.0
2017-Aug-16 15:58N 58°06' E 006°48'0 0.0
2017-Aug-16 15:28N 58°06' E 006°48'0 0.0
2017-Aug-16 14:55N 58°06' E 006°48'0 0.0
2017-Aug-16 14:28N 58°06' E 006°48'0 0.0
2017-Aug-16 13:58N 58°06' E 006°48'0 0.0
2017-Aug-16 13:28N 58°06' E 006°48'0 0.0
2017-Aug-16 12:58N 58°06' E 006°48'0 0.0
2017-Aug-16 12:28N 58°06' E 006°48'0 0.0
2017-Aug-16 11:58N 58°06' E 006°48'0 0.0
2017-Aug-16 11:28N 58°06' E 006°48'0 0.0
2017-Aug-16 10:58N 58°06' E 006°48'0 0.0
2017-Aug-16 10:28N 58°06' E 006°48'0 0.0
2017-Aug-16 09:58N 58°06' E 006°48'0 0.0
2017-Aug-16 09:28N 58°06' E 006°48'0 0.0
2017-Aug-16 08:58N 58°06' E 006°48'0 0.0
2017-Aug-16 08:28N 58°06' E 006°48'0 0.0
2017-Aug-16 07:58N 58°06' E 006°48'0 0.0
2017-Aug-16 07:28N 58°06' E 006°48'0 0.0
2017-Aug-16 06:58N 58°06' E 006°48'0 0.0
2017-Aug-16 06:28N 58°06' E 006°48'0 0.0
2017-Aug-16 05:58N 58°06' E 006°48'0 0.0
2017-Aug-16 05:28N 58°06' E 006°48'0 0.0
2017-Aug-16 04:58N 58°06' E 006°48'0 0.0
2017-Aug-16 04:28N 58°06' E 006°48'0 0.0
2017-Aug-16 03:58N 58°06' E 006°48'0 0.0
2017-Aug-16 03:28N 58°06' E 006°48'0 0.0
2017-Aug-16 02:58N 58°06' E 006°48'0 0.0
2017-Aug-16 02:28N 58°06' E 006°48'0 0.0
2017-Aug-16 01:58N 58°06' E 006°48'0 0.0
2017-Aug-16 01:28N 58°06' E 006°48'0 0.0
2017-Aug-16 00:58N 58°06' E 006°48'0 0.0
2017-Aug-16 00:28N 58°06' E 006°48'0 0.0
2017-Aug-15 23:58N 58°06' E 006°48'0 0.0
2017-Aug-15 23:28N 58°06' E 006°48'0 0.0
2017-Aug-15 22:58N 58°06' E 006°48'0 0.0
2017-Aug-15 22:28N 58°06' E 006°48'0 0.0
2017-Aug-15 21:58N 58°06' E 006°48'0 0.0
2017-Aug-15 21:28N 58°06' E 006°48'0 0.0
2017-Aug-15 20:55N 58°06' E 006°48'0 0.0
2017-Aug-15 20:28N 58°06' E 006°48'0 0.0
2017-Aug-15 19:58N 58°06' E 006°48'0 0.0
2017-Aug-15 19:25N 58°06' E 006°48'0 0.0
2017-Aug-15 18:58N 58°06' E 006°48'0 0.0
2017-Aug-15 18:28N 58°06' E 006°48'0 0.0
2017-Aug-15 17:58N 58°06' E 006°48'0 0.0
2017-Aug-15 17:28N 58°06' E 006°48'0 0.0
2017-Aug-15 16:58N 58°06' E 006°48'0 0.0
2017-Aug-15 16:28N 58°06' E 006°48'0 0.0
2017-Aug-15 15:58N 58°06' E 006°48'0 0.0
2017-Aug-15 15:28N 58°06' E 006°48'0 0.0
2017-Aug-15 14:58N 58°06' E 006°48'0 0.0
2017-Aug-15 14:22N 58°06' E 006°48'0 0.0
2017-Aug-15 13:58N 58°06' E 006°48'0 0.0
2017-Aug-15 13:28N 58°06' E 006°48'0 0.0
2017-Aug-15 12:58N 58°06' E 006°48'0 0.0
2017-Aug-15 12:28N 58°06' E 006°48'0 0.0
2017-Aug-15 11:58N 58°06' E 006°48'0 0.0
2017-Aug-15 11:28N 58°06' E 006°48'0 0.0
2017-Aug-15 10:58N 58°06' E 006°48'0 0.0
2017-Aug-15 10:28N 58°06' E 006°48'0 0.0
2017-Aug-15 09:58N 58°06' E 006°48'0 0.0
2017-Aug-15 09:28N 58°06' E 006°48'0 0.0
2017-Aug-15 08:58N 58°06' E 006°48'0 0.0
2017-Aug-15 08:28N 58°06' E 006°48'0 0.0
2017-Aug-15 07:58N 58°06' E 006°48'0 0.0
2017-Aug-15 07:28N 58°06' E 006°48'0 0.0
2017-Aug-15 06:58N 58°06' E 006°48'0 0.0
2017-Aug-15 06:28N 58°06' E 006°48'0 0.0
2017-Aug-15 05:58N 58°06' E 006°48'0 0.0
2017-Aug-15 05:28N 58°06' E 006°48'0 0.0
2017-Aug-15 04:58N 58°06' E 006°48'0 0.0
2017-Aug-15 04:28N 58°06' E 006°48'0 0.0
2017-Aug-15 03:58N 58°06' E 006°48'0 0.0
2017-Aug-15 03:28N 58°06' E 006°48'0 0.0
2017-Aug-15 02:58N 58°06' E 006°48'0 0.0
2017-Aug-15 02:28N 58°06' E 006°48'0 0.0
2017-Aug-15 01:58N 58°06' E 006°48'0 0.0
2017-Aug-15 01:28N 58°06' E 006°48'0 0.0
2017-Aug-15 00:58N 58°06' E 006°48'0 0.0
2017-Aug-15 00:25N 58°06' E 006°48'0 0.0
2017-Aug-14 23:58N 58°06' E 006°48'0 0.0
2017-Aug-14 23:28N 58°06' E 006°48'0 0.0
2017-Aug-14 22:58N 58°06' E 006°48'0 0.0
2017-Aug-14 22:28N 58°06' E 006°48'0 0.0
2017-Aug-14 21:58N 58°06' E 006°48'0 0.0
2017-Aug-14 21:28N 58°06' E 006°48'0 0.0
2017-Aug-14 20:58N 58°06' E 006°48'0 0.0
2017-Aug-14 20:28N 58°06' E 006°48'0 0.0
2017-Aug-14 19:58N 58°06' E 006°48'0 0.0
2017-Aug-14 19:28N 58°06' E 006°48'0 0.0
2017-Aug-14 18:58N 58°06' E 006°48'0 0.0
2017-Aug-14 18:28N 58°06' E 006°48'0 0.0
2017-Aug-14 17:58N 58°06' E 006°48'0 0.0
2017-Aug-14 17:28N 58°06' E 006°48'0 0.0
2017-Aug-14 16:58N 58°06' E 006°48'0 0.0
2017-Aug-14 16:28N 58°06' E 006°48'0 0.0
2017-Aug-14 15:58N 58°06' E 006°48'0 0.0
2017-Aug-14 15:28N 58°06' E 006°48'0 0.0
2017-Aug-14 14:55N 58°06' E 006°48'0 0.0
2017-Aug-14 14:25N 58°06' E 006°48'0 0.0
2017-Aug-14 13:55N 58°06' E 006°48'0 0.0
2017-Aug-14 13:28N 58°06' E 006°48'0 0.0
2017-Aug-14 12:58N 58°06' E 006°48'0 0.0
2017-Aug-14 12:28N 58°06' E 006°48'0 0.4
2017-Aug-14 12:00N 58°05' E 006°49'2 3.5
2017-Aug-14 11:30N 58°04' E 006°49'3 5.2
2017-Aug-14 11:00N 58°03' E 006°45'2 4.8
2017-Aug-14 10:30N 58°03' E 006°40'3 5.3
2017-Aug-14 10:00N 58°04' E 006°36'3 5.5
2017-Aug-14 09:30N 58°06' E 006°32'3 5.2
2017-Aug-14 09:00N 58°08' E 006°29'2 5.0
2017-Aug-14 08:31N 58°10' E 006°26'3 5.2
2017-Aug-14 08:00N 58°12' E 006°22'3 4.9
2017-Aug-14 07:30N 58°13' E 006°19'3 6.0
2017-Aug-14 07:01N 58°16' E 006°15'3 5.9
2017-Aug-14 06:30N 58°18' E 006°11'3 6.2
2017-Aug-14 06:00N 58°20' E 006°08'3 5.8
2017-Aug-14 05:30N 58°22' E 006°04'3 5.9
2017-Aug-14 05:00N 58°24' E 005°60'3 5.3
2017-Aug-14 04:30N 58°27' E 006°00'  

Dump ship's entire track history